TimeEDT,TemperatureF,Dew PointF,Humidity,Sea Level PressureIn,VisibilityMPH,Wind Direction,Wind SpeedMPH,Gust SpeedMPH,PrecipitationIn,Events,Conditions,WindDirDegrees,DateUTC
12:58 AM,59.7,59.5,99,29.92,10.0,South,5.8,-,N/A,,Clear,170,2013-10-17 04:58:00
1:58 AM,59.9,59.5,99,29.93,10.0,South,3.5,-,N/A,,Scattered Clouds,190,2013-10-17 05:58:00
2:48 AM,59.0,59.0,100,29.91,10.0,South,5.8,-,N/A,,Partly Cloudy,180,2013-10-17 06:48:00
2:53 AM,59.0,59.0,100,29.90,10.0,South,5.8,-,N/A,,Scattered Clouds,180,2013-10-17 06:53:00
2:58 AM,60.1,59.7,99,29.91,10.0,South,4.6,-,N/A,,Mostly Cloudy,180,2013-10-17 06:58:00
3:03 AM,60.8,60.8,100,29.90,10.0,South,5.8,-,N/A,,Mostly Cloudy,180,2013-10-17 07:03:00
3:28 AM,60.8,60.8,100,29.89,7.0,SSW,9.2,-,N/A,,Overcast,210,2013-10-17 07:28:00
3:58 AM,60.8,60.4,99,29.90,4.0,SSW,8.1,-,N/A,,Overcast,210,2013-10-17 07:58:00
4:33 AM,60.8,60.8,100,29.89,3.0,SW,4.6,-,N/A,,Mostly Cloudy,230,2013-10-17 08:33:00
4:43 AM,60.8,60.8,100,29.89,2.5,SW,5.8,-,N/A,,Overcast,230,2013-10-17 08:43:00
4:58 AM,61.2,61.0,99,29.90,2.5,SSW,5.8,-,N/A,,Overcast,200,2013-10-17 08:58:00
5:03 AM,60.8,60.8,100,29.89,2.5,South,8.1,-,N/A,,Overcast,190,2013-10-17 09:03:00
5:08 AM,60.8,60.8,100,29.89,4.0,South,5.8,-,N/A,,Mostly Cloudy,190,2013-10-17 09:08:00
5:13 AM,60.8,60.8,100,29.89,4.0,SSW,5.8,-,N/A,,Scattered Clouds,200,2013-10-17 09:13:00
5:28 AM,60.8,60.8,100,29.89,6.0,SSW,5.8,-,N/A,,Mostly Cloudy,210,2013-10-17 09:28:00
5:58 AM,62.1,62.1,100,29.90,8.0,South,6.9,-,N/A,,Overcast,190,2013-10-17 09:58:00
6:08 AM,62.6,62.6,100,29.89,9.0,South,6.9,-,N/A,,Overcast,190,2013-10-17 10:08:00
6:18 AM,62.6,62.6,100,29.90,10.0,South,6.9,-,N/A,,Overcast,190,2013-10-17 10:18:00
6:38 AM,62.6,62.6,100,29.90,9.0,SSW,6.9,-,N/A,,Overcast,210,2013-10-17 10:38:00
6:53 AM,62.6,62.6,100,29.90,9.0,South,6.9,-,N/A,,Overcast,190,2013-10-17 10:53:00
6:58 AM,62.4,62.4,100,29.91,9.0,SSW,6.9,-,N/A,,Overcast,200,2013-10-17 10:58:00
7:18 AM,62.6,62.6,100,29.90,7.0,South,5.8,-,N/A,,Overcast,180,2013-10-17 11:18:00
7:58 AM,62.8,62.8,100,29.91,5.0,South,8.1,-,N/A,,Overcast,170,2013-10-17 11:58:00
8:18 AM,62.6,62.6,100,29.90,5.0,South,6.9,-,N/A,,Overcast,180,2013-10-17 12:18:00
8:38 AM,64.4,64.4,100,29.91,7.0,SSW,9.2,-,N/A,,Overcast,200,2013-10-17 12:38:00
8:58 AM,63.9,63.9,100,29.92,9.0,SSW,6.9,-,N/A,,Mostly Cloudy,200,2013-10-17 12:58:00
9:03 AM,64.4,64.4,100,29.91,9.0,SSW,6.9,-,N/A,,Mostly Cloudy,200,2013-10-17 13:03:00
9:28 AM,64.4,64.4,100,29.91,10.0,South,5.8,-,N/A,,Mostly Cloudy,180,2013-10-17 13:28:00
9:48 AM,64.4,64.4,100,29.90,10.0,South,5.8,-,N/A,,Scattered Clouds,190,2013-10-17 13:48:00
9:58 AM,64.9,64.8,99,29.91,10.0,South,5.8,-,N/A,,Scattered Clouds,180,2013-10-17 13:58:00
10:45 AM,66.2,66.2,100,29.90,10.0,South,4.6,-,N/A,Rain,Light Rain,190,2013-10-17 14:45:00
10:57 AM,66.2,66.2,100,29.90,10.0,South,4.6,-,N/A,,Scattered Clouds,180,2013-10-17 14:57:00
10:58 AM,66.6,66.2,99,29.90,10.0,South,4.6,-,0.00,,Scattered Clouds,190,2013-10-17 14:58:00
11:38 AM,68.0,66.2,94,29.89,10.0,South,3.5,-,N/A,,Mostly Cloudy,180,2013-10-17 15:38:00
11:48 AM,69.8,66.2,88,29.88,10.0,Variable,2.3,-,N/A,,Mostly Cloudy,0,2013-10-17 15:48:00
11:53 AM,69.8,66.2,88,29.88,10.0,Variable,3.5,-,N/A,,Mostly Cloudy,0,2013-10-17 15:53:00
11:58 AM,69.8,66.0,88,29.89,10.0,Variable,2.3,-,0.00,,Mostly Cloudy,0,2013-10-17 15:58:00
12:13 PM,69.8,66.2,88,29.87,10.0,Variable,2.3,-,N/A,,Scattered Clouds,0,2013-10-17 16:13:00
12:37 PM,71.6,66.2,83,29.87,10.0,Variable,1.2,-,N/A,,Light Drizzle,0,2013-10-17 16:37:00
12:49 PM,71.6,66.2,83,29.87,10.0,Variable,2.3,-,N/A,,Scattered Clouds,0,2013-10-17 16:49:00
12:58 PM,71.8,65.8,81,29.87,10.0,Calm,Calm,-,0.00,,Scattered Clouds,0,2013-10-17 16:58:00
1:58 PM,70.2,66.6,88,29.84,10.0,ENE,5.8,-,N/A,,Clear,70,2013-10-17 17:58:00
2:58 PM,69.4,66.0,89,29.82,10.0,East,6.9,-,N/A,,Clear,80,2013-10-17 18:58:00
3:43 PM,68.0,66.2,94,29.80,10.0,East,5.8,-,N/A,Rain,Light Rain,100,2013-10-17 19:43:00
3:55 PM,69.8,68.0,94,29.79,10.0,East,5.8,-,N/A,,Clear,90,2013-10-17 19:55:00
3:58 PM,68.9,67.1,94,29.81,10.0,East,4.6,-,0.00,,Clear,100,2013-10-17 19:58:00
4:58 PM,72.0,63.9,76,29.79,10.0,South,13.8,-,N/A,,Clear,170,2013-10-17 20:58:00
5:12 PM,71.6,64.4,78,29.78,10.0,South,13.8,-,N/A,Rain,Light Rain,180,2013-10-17 21:12:00
5:23 PM,71.6,64.4,78,29.78,10.0,South,9.2,-,N/A,,Clear,190,2013-10-17 21:23:00
5:58 PM,71.2,63.3,76,29.78,10.0,South,9.2,-,0.00,,Clear,190,2013-10-17 21:58:00
6:58 PM,68.7,63.1,82,29.77,10.0,South,9.2,-,N/A,,Mostly Cloudy,170,2013-10-17 22:58:00
7:58 PM,67.8,63.0,84,29.77,10.0,SSE,10.4,-,N/A,,Scattered Clouds,160,2013-10-17 23:58:00
8:58 PM,66.9,64.6,92,29.75,10.0,South,12.7,-,N/A,,Clear,170,2013-10-18 00:58:00
9:58 PM,67.5,65.8,95,29.76,10.0,South,12.7,-,N/A,,Scattered Clouds,180,2013-10-18 01:58:00
10:58 PM,68.5,64.9,88,29.75,10.0,South,13.8,-,N/A,,Scattered Clouds,190,2013-10-18 02:58:00
11:08 PM,68.0,64.4,88,29.74,10.0,SSW,16.1,-,N/A,,Mostly Cloudy,200,2013-10-18 03:08:00
11:58 PM,69.6,64.0,82,29.76,10.0,SW,12.7,-,N/A,,Mostly Cloudy,220,2013-10-18 03:58:00